createdAt,value
2022-09-05T00:02:49.209Z,4.53
2022-09-05T00:06:02.266Z,4.00
2022-09-05T00:09:04.563Z,3.70
2022-09-05T00:11:44.875Z,5.33
2022-09-05T00:15:17.463Z,4.33
2022-09-05T00:19:28.406Z,4.67
2022-09-05T00:24:21.603Z,4.40
2022-09-05T00:24:50.281Z,4.63
2022-09-05T00:27:56.408Z,4.23
2022-09-05T00:31:51.769Z,4.90
2022-09-05T00:34:09.849Z,4.20
2022-09-05T00:36:47.837Z,4.50
2022-09-05T00:39:26.049Z,5.80
2022-09-05T00:41:57.780Z,4.43
2022-09-05T00:44:32.192Z,4.97
2022-09-05T00:47:08.433Z,6.17
2022-09-05T00:49:51.849Z,4.60
2022-09-05T00:52:43.623Z,4.87
2022-09-05T00:56:08.252Z,4.37
2022-09-05T00:59:23.925Z,4.50
2022-09-05T01:02:07.234Z,5.50
2022-09-05T01:05:02.113Z,3.90
2022-09-05T01:07:54.305Z,4.23
2022-09-05T01:11:28.368Z,3.93
2022-09-05T01:14:25.697Z,3.80
2022-09-05T01:17:39.566Z,4.00
2022-09-05T01:20:29.871Z,5.33
2022-09-05T01:23:33.922Z,4.80
2022-09-05T01:26:24.523Z,5.03
2022-09-05T01:29:40.328Z,5.90
2022-09-05T01:32:38.039Z,4.07
2022-09-05T01:35:27.981Z,6.20
2022-09-05T01:38:30.409Z,4.30
2022-09-05T01:41:21.737Z,5.80
2022-09-05T01:44:07.522Z,5.87
2022-09-05T01:46:56.032Z,4.90
2022-09-05T01:50:29.289Z,3.87
2022-09-05T01:53:09.929Z,6.63
2022-09-05T01:56:04.555Z,3.87
2022-09-05T01:58:51.592Z,4.17
2022-09-05T02:01:40.927Z,4.73
2022-09-05T02:04:24.674Z,5.33
2022-09-05T02:07:19.835Z,6.00
2022-09-05T02:10:45.124Z,5.70
2022-09-05T02:13:49.202Z,5.33
2022-09-05T02:16:43.364Z,4.93
2022-09-05T02:19:10.160Z,5.47
2022-09-05T02:21:56.597Z,4.90
2022-09-05T02:24:32.983Z,4.10
2022-09-05T02:28:04.766Z,4.43
2022-09-05T02:30:25.488Z,6.20
2022-09-05T02:33:10.902Z,3.50
2022-09-05T02:35:59.758Z,4.20
2022-09-05T02:45:02.365Z,2.53
2022-09-05T02:45:17.868Z,2.33
2022-09-05T02:46:20.764Z,3.60
2022-09-05T02:48:57.689Z,2.87
2022-09-05T02:57:26.978Z,2.60
2022-09-05T02:57:43.079Z,3.07
2022-09-05T02:58:05.950Z,3.23
2022-09-05T03:00:50.963Z,4.03
2022-09-05T03:03:54.687Z,2.40
2022-09-05T03:07:11.313Z,2.30
2022-09-05T03:10:19.267Z,2.27
2022-09-05T03:13:32.825Z,2.40
2022-09-05T03:16:36.475Z,3.27
2022-09-05T03:19:54.842Z,3.57
2022-09-05T03:22:47.681Z,2.70
2022-09-05T03:25:36.400Z,2.63
2022-09-05T03:28:35.454Z,2.63
2022-09-05T03:31:56.895Z,3.83
2022-09-05T03:35:08.459Z,2.93
2022-09-05T03:37:50.687Z,4.97
2022-09-05T03:41:03.956Z,3.20
2022-09-05T03:43:48.880Z,5.60
2022-09-05T03:46:33.748Z,5.33
2022-09-05T03:53:31.036Z,4.20
2022-09-05T03:57:06.709Z,4.40
2022-09-05T03:57:22.672Z,5.07
2022-09-05T04:03:37.869Z,3.67
2022-09-05T04:08:10.650Z,4.57
2022-09-05T04:08:17.305Z,4.97
2022-09-05T04:10:27.839Z,3.60
2022-09-05T04:13:03.568Z,3.63
2022-09-05T04:16:00.416Z,5.90
2022-09-05T04:18:42.905Z,5.30
2022-09-05T04:21:18.298Z,4.67
2022-09-05T04:24:01.680Z,3.97
2022-09-05T04:26:58.967Z,3.57
2022-09-05T04:29:40.000Z,4.83
2022-09-05T04:32:25.399Z,5.77
2022-09-05T04:35:38.333Z,6.10
2022-09-05T04:38:19.856Z,5.93
2022-09-05T04:40:57.163Z,6.03
2022-09-05T04:43:42.715Z,6.37
2022-09-05T04:46:47.405Z,6.60
2022-09-05T04:49:33.597Z,7.60
2022-09-05T04:52:31.529Z,6.57
2022-09-05T04:55:14.079Z,3.57
2022-09-05T04:58:13.609Z,3.53
2022-09-05T05:06:01.972Z,3.17
2022-09-05T05:06:14.655Z,2.87
2022-09-05T05:06:45.542Z,3.30
2022-09-05T05:09:41.182Z,4.03
2022-09-05T05:14:19.621Z,6.43
2022-09-05T05:18:15.157Z,7.37
2022-09-05T05:18:39.531Z,6.67
2022-09-05T05:21:13.080Z,5.90
2022-09-05T05:23:54.803Z,8.13
2022-09-05T05:26:43.732Z,8.30
2022-09-05T05:29:19.407Z,8.83
2022-09-05T05:31:53.745Z,7.70
2022-09-05T05:34:33.158Z,9.17
2022-09-05T05:37:38.888Z,6.77
2022-09-05T05:40:21.148Z,4.60
2022-09-05T05:42:48.416Z,4.33
2022-09-05T05:45:30.941Z,2.77
2022-09-05T05:48:27.921Z,3.30
2022-09-05T05:52:02.370Z,3.70
2022-09-05T05:54:40.696Z,4.93
2022-09-05T05:57:38.301Z,8.03
2022-09-05T06:00:55.319Z,8.57
2022-09-05T06:04:16.298Z,10.27
2022-09-05T06:07:18.656Z,13.03
2022-09-05T06:14:54.960Z,10.70
2022-09-05T06:15:08.938Z,12.87
2022-09-05T06:17:03.216Z,11.37
2022-09-05T06:22:00.602Z,11.07
2022-09-05T06:23:50.961Z,11.30
2022-09-05T06:26:26.127Z,9.50
2022-09-05T06:29:06.198Z,9.27
2022-09-05T06:32:03.258Z,8.53
2022-09-05T06:35:13.792Z,10.27
2022-09-05T06:38:18.071Z,8.33
2022-09-05T06:40:57.655Z,7.70
2022-09-05T06:44:01.314Z,8.20
2022-09-05T06:47:21.941Z,7.07
2022-09-05T06:50:28.135Z,6.90
2022-09-05T06:53:15.031Z,8.30
2022-09-05T06:56:45.287Z,6.67
2022-09-05T06:59:48.813Z,6.23
2022-09-05T07:02:59.439Z,7.57
2022-09-05T07:05:52.489Z,7.33
2022-09-05T07:08:44.289Z,6.10
2022-09-05T07:11:20.245Z,5.63
2022-09-05T07:14:24.369Z,5.37
2022-09-05T07:16:58.488Z,5.33
2022-09-05T07:19:49.509Z,6.53
2022-09-05T07:22:47.630Z,10.77
2022-09-05T07:25:20.866Z,6.37
2022-09-05T07:28:26.041Z,5.80
2022-09-05T07:30:47.706Z,6.07
2022-09-05T07:33:25.467Z,5.77
2022-09-05T07:35:53.675Z,5.20
2022-09-05T07:38:32.571Z,6.20
2022-09-05T07:41:29.333Z,5.73
2022-09-05T07:44:06.456Z,5.53
2022-09-05T07:46:38.937Z,5.13
2022-09-05T07:49:17.239Z,6.17
2022-09-05T07:56:50.124Z,6.50
2022-09-05T07:57:02.077Z,11.33
2022-09-05T07:57:51.725Z,5.57
2022-09-05T08:00:26.600Z,4.90
2022-09-05T08:03:03.171Z,5.30
2022-09-05T08:05:49.027Z,5.07
2022-09-05T08:09:21.770Z,4.30
2022-09-05T08:11:49.437Z,4.07
2022-09-05T08:14:57.531Z,3.20
2022-09-05T08:17:30.204Z,6.17
2022-09-05T08:20:18.600Z,3.57
2022-09-05T08:22:52.498Z,3.33
2022-09-05T08:25:42.881Z,3.70
2022-09-05T08:28:35.379Z,4.80
2022-09-05T08:31:19.998Z,4.17
2022-09-05T08:33:52.954Z,4.10
2022-09-05T08:36:31.925Z,5.27
2022-09-05T08:39:02.821Z,5.90
2022-09-05T08:42:19.881Z,3.53
2022-09-05T08:46:46.892Z,5.90
2022-09-05T08:48:26.612Z,6.13
2022-09-05T08:51:08.520Z,3.47
2022-09-05T08:53:59.897Z,4.83
2022-09-05T08:56:54.026Z,4.17
2022-09-05T09:00:18.606Z,3.80
2022-09-05T09:03:03.961Z,5.00
2022-09-05T09:06:18.606Z,4.00
2022-09-05T09:09:13.243Z,4.43
2022-09-05T09:12:26.303Z,4.97
2022-09-05T09:15:34.367Z,5.30
2022-09-05T09:18:12.293Z,6.13
2022-09-05T09:21:13.078Z,3.90
2022-09-05T09:23:50.282Z,3.73
2022-09-05T09:26:32.410Z,5.77
2022-09-05T09:29:07.039Z,5.50
2022-09-05T09:32:14.144Z,4.00
2022-09-05T09:34:49.271Z,4.13
2022-09-05T09:37:58.731Z,2.90
2022-09-05T09:41:17.646Z,3.30
2022-09-05T09:44:22.059Z,2.60
2022-09-05T09:46:51.367Z,2.90
2022-09-05T09:49:42.482Z,2.60
2022-09-05T09:52:36.777Z,3.40
2022-09-05T09:55:30.534Z,3.10
2022-09-05T09:58:34.182Z,2.63
2022-09-05T10:06:28.815Z,2.80
2022-09-05T10:10:38.769Z,2.17
2022-09-05T10:10:49.595Z,2.83
2022-09-05T10:12:12.863Z,3.97
2022-09-05T10:15:11.300Z,2.00
2022-09-05T10:18:13.208Z,3.37
2022-09-05T10:21:16.078Z,3.03
2022-09-05T10:24:11.458Z,4.07
2022-09-05T10:27:05.804Z,3.90
2022-09-05T10:29:52.683Z,2.77
2022-09-05T10:35:19.869Z,2.30
2022-09-05T10:35:37.242Z,3.70
2022-09-05T10:38:10.688Z,2.60
2022-09-05T10:41:20.170Z,2.97
2022-09-05T10:43:32.334Z,2.33
2022-09-05T10:46:05.296Z,2.97
2022-09-05T10:48:53.823Z,2.00
2022-09-05T10:51:38.628Z,2.07
2022-09-05T10:54:36.607Z,2.10
2022-09-05T10:57:17.795Z,4.70
2022-09-05T11:02:21.507Z,3.63
2022-09-05T11:03:00.928Z,1.80
2022-09-05T11:05:38.790Z,2.20
2022-09-05T11:08:20.437Z,4.43
2022-09-05T11:11:05.324Z,3.90
2022-09-05T11:13:46.073Z,2.43
2022-09-05T11:16:42.548Z,1.40
2022-09-05T11:19:24.413Z,1.53
2022-09-05T11:22:03.796Z,3.08
2022-09-05T11:25:02.677Z,2.67
2022-09-05T11:27:41.441Z,1.50
2022-09-05T11:30:28.690Z,1.90
2022-09-05T11:39:51.051Z,2.53
2022-09-05T11:40:10.063Z,2.13
2022-09-05T11:40:28.410Z,2.08
2022-09-05T11:43:32.295Z,4.47
2022-09-05T11:46:17.335Z,2.50
2022-09-05T11:49:16.023Z,3.88
2022-09-05T11:52:40.713Z,1.97
2022-09-05T11:55:42.266Z,1.90
2022-09-05T11:58:48.799Z,1.73
2022-09-05T12:01:43.034Z,2.75
2022-09-05T12:04:46.588Z,3.22
2022-09-05T12:07:46.801Z,2.22
2022-09-05T12:10:46.159Z,3.58
2022-09-05T12:13:36.949Z,1.98
2022-09-05T12:16:36.260Z,3.53
2022-09-05T12:19:32.872Z,1.70
2022-09-05T12:22:27.909Z,1.40
2022-09-05T12:27:35.634Z,2.25
2022-09-05T12:29:28.006Z,1.60
2022-09-05T12:33:32.661Z,3.15
2022-09-05T12:36:11.386Z,2.30
2022-09-05T12:40:28.718Z,1.80
2022-09-05T12:41:44.996Z,1.67
2022-09-05T12:44:44.851Z,5.75
2022-09-05T12:47:19.806Z,2.45
2022-09-05T12:50:14.408Z,4.63
2022-09-05T12:52:47.065Z,1.73
2022-09-05T12:55:33.305Z,1.58
2022-09-05T13:02:41.875Z,1.50
2022-09-05T13:03:15.335Z,1.60
2022-09-05T13:04:16.696Z,2.05
2022-09-05T13:06:51.042Z,2.90
2022-09-05T13:11:55.738Z,2.17
2022-09-05T13:15:02.908Z,1.77
2022-09-05T13:15:38.468Z,1.95
2022-09-05T13:18:23.477Z,1.77
2022-09-05T13:21:04.376Z,3.72
2022-09-05T13:24:12.014Z,2.13
2022-09-05T13:26:56.347Z,3.35
2022-09-05T13:32:49.982Z,1.98
2022-09-05T13:38:10.676Z,2.25
2022-09-05T13:38:17.482Z,3.33
2022-09-05T13:39:11.659Z,1.92
2022-09-05T13:41:59.380Z,4.70
2022-09-05T13:44:29.638Z,1.67
2022-09-05T13:47:30.299Z,1.65
2022-09-05T13:50:28.346Z,2.08
2022-09-05T13:53:21.340Z,1.58
2022-09-05T13:56:14.557Z,2.25
2022-09-05T13:58:56.656Z,2.28
2022-09-05T14:02:04.492Z,3.38
2022-09-05T14:05:08.417Z,3.40
2022-09-05T14:08:22.749Z,5.50
2022-09-05T14:11:24.289Z,1.65
2022-09-05T14:14:04.788Z,1.42
2022-09-05T14:20:28.703Z,1.92
2022-09-05T14:23:09.999Z,2.00
2022-09-05T14:25:45.511Z,1.88
2022-09-05T14:28:21.925Z,2.10
2022-09-05T14:37:34.392Z,2.03
2022-09-05T14:37:40.948Z,2.90
2022-09-05T14:38:01.279Z,1.60
2022-09-05T14:40:43.989Z,3.92
2022-09-05T14:44:07.738Z,3.65
2022-09-05T14:47:02.564Z,1.40
2022-09-05T14:50:01.142Z,2.72
2022-09-05T14:52:35.440Z,1.38
2022-09-05T15:02:42.187Z,1.98
2022-09-05T15:02:54.062Z,2.70
2022-09-05T15:06:35.772Z,3.47
2022-09-05T15:11:24.216Z,2.50
2022-09-05T15:12:23.313Z,2.45
2022-09-05T15:14:50.175Z,1.50
2022-09-05T15:17:23.050Z,1.40
2022-09-05T15:20:05.419Z,1.98
2022-09-05T15:22:41.842Z,1.98
2022-09-05T15:25:22.883Z,1.50
2022-09-05T15:27:50.258Z,1.52
2022-09-05T15:30:35.900Z,2.03
2022-09-05T15:33:25.208Z,1.52
2022-09-05T15:35:53.161Z,1.98
2022-09-05T15:38:55.066Z,2.42
2022-09-05T15:41:30.051Z,2.55
2022-09-05T15:44:09.825Z,2.03
2022-09-05T15:46:57.163Z,2.30
2022-09-05T15:49:38.777Z,1.95
2022-09-05T15:52:31.432Z,2.25
2022-09-05T15:55:13.809Z,1.58
2022-09-05T15:58:02.006Z,3.17
2022-09-05T16:00:52.673Z,1.30
2022-09-05T16:06:00.847Z,1.40
2022-09-05T16:10:37.854Z,2.30
2022-09-05T16:10:45.941Z,1.63
2022-09-05T16:17:35.026Z,1.77
2022-09-05T16:23:14.996Z,1.45
2022-09-05T16:23:33.325Z,2.55
2022-09-05T16:24:05.647Z,2.13
2022-09-05T16:26:50.640Z,2.85
2022-09-05T16:29:26.683Z,2.05
2022-09-05T16:31:59.660Z,3.20
2022-09-05T16:34:55.418Z,2.95
2022-09-05T16:37:39.447Z,1.50
2022-09-05T16:40:26.669Z,1.70
2022-09-05T16:43:08.133Z,1.50
2022-09-05T16:46:00.719Z,2.35
2022-09-05T16:49:00.530Z,1.70
2022-09-05T16:51:45.335Z,2.42
2022-09-05T16:54:31.943Z,1.90
2022-09-05T16:57:09.153Z,2.07
2022-09-05T16:59:41.676Z,3.80
2022-09-05T17:02:53.330Z,3.33
2022-09-05T17:05:45.947Z,2.90
2022-09-05T17:08:28.981Z,3.53
2022-09-05T17:11:12.228Z,2.10
2022-09-05T17:13:57.575Z,4.07
2022-09-05T17:16:46.670Z,1.90
2022-09-05T17:19:24.033Z,1.50
2022-09-05T17:25:54.162Z,3.00
2022-09-05T17:29:23.474Z,1.83
2022-09-05T17:29:32.962Z,2.37
2022-09-05T17:33:49.180Z,2.50
2022-09-05T17:36:41.145Z,1.63
2022-09-05T17:39:45.046Z,2.77
2022-09-05T17:42:32.526Z,3.20
2022-09-05T17:45:45.440Z,2.87
2022-09-05T17:48:16.595Z,2.53
2022-09-05T17:50:51.217Z,2.13
2022-09-05T17:53:26.513Z,2.73
2022-09-05T17:55:54.859Z,3.93
2022-09-05T17:58:48.939Z,1.93
2022-09-05T18:01:27.383Z,2.37
2022-09-05T18:04:16.476Z,3.00
2022-09-05T18:06:59.002Z,3.17
2022-09-05T18:09:39.981Z,1.77
2022-09-05T18:13:31.539Z,2.53
2022-09-05T18:15:39.437Z,2.17
2022-09-05T18:18:45.051Z,2.20
2022-09-05T18:21:12.538Z,2.90
2022-09-05T18:24:03.682Z,2.67
2022-09-05T18:26:41.140Z,3.33
2022-09-05T18:29:58.835Z,3.70
2022-09-05T18:32:53.839Z,2.43
2022-09-05T18:35:37.827Z,4.37
2022-09-05T18:38:29.554Z,1.83
2022-09-05T18:41:18.331Z,2.10
2022-09-05T18:44:19.826Z,2.17
2022-09-05T18:46:51.752Z,2.53
2022-09-05T18:50:25.335Z,3.37
2022-09-05T18:52:42.141Z,8.33
2022-09-05T18:56:09.707Z,3.57
2022-09-05T18:58:13.371Z,5.50
2022-09-05T19:00:46.779Z,2.20
2022-09-05T19:03:32.993Z,3.87
2022-09-05T19:06:36.072Z,2.33
2022-09-05T19:09:30.082Z,2.20
2022-09-05T19:12:34.869Z,3.23
2022-09-05T19:15:01.992Z,5.73
2022-09-05T19:17:38.746Z,3.00
2022-09-05T19:20:30.919Z,2.87
2022-09-05T19:23:11.606Z,2.33
2022-09-05T19:25:52.957Z,5.00
2022-09-05T19:36:43.923Z,3.87
2022-09-05T19:37:04.520Z,2.10
2022-09-05T19:37:11.015Z,3.13
2022-09-05T19:47:25.473Z,4.73
2022-09-05T19:47:39.632Z,2.97
2022-09-05T19:47:49.092Z,4.00
2022-09-05T19:48:34.365Z,3.20
2022-09-05T19:51:17.319Z,2.17
2022-09-05T19:54:05.426Z,2.97
2022-09-05T19:56:43.483Z,3.53
2022-09-05T19:59:22.979Z,3.20
2022-09-05T20:01:51.765Z,2.97
2022-09-05T20:04:20.568Z,3.40
2022-09-05T20:06:50.017Z,6.27
2022-09-05T20:09:20.763Z,3.73
2022-09-05T20:11:54.312Z,3.20
2022-09-05T20:14:24.492Z,3.03
2022-09-05T20:16:56.000Z,2.80
2022-09-05T20:19:33.941Z,3.27
2022-09-05T20:22:31.862Z,2.80
2022-09-05T20:24:55.899Z,3.80
2022-09-05T20:27:28.634Z,3.43
2022-09-05T20:30:00.366Z,3.07
2022-09-05T20:32:40.498Z,4.90
2022-09-05T20:40:03.898Z,4.57
2022-09-05T20:43:15.473Z,3.00
2022-09-05T20:43:27.221Z,4.53
2022-09-05T20:44:16.947Z,3.83
2022-09-05T20:54:05.615Z,4.00
2022-09-05T20:54:09.786Z,2.70
2022-09-05T20:54:26.937Z,4.53
2022-09-05T20:55:41.276Z,3.60
2022-09-05T20:58:10.179Z,3.93
2022-09-05T21:00:42.167Z,3.93
2022-09-05T21:03:37.343Z,6.03
2022-09-05T21:06:33.711Z,3.13
2022-09-05T21:09:24.368Z,2.70
2022-09-05T21:11:51.714Z,4.17
2022-09-05T21:14:21.012Z,3.30
2022-09-05T21:17:08.264Z,3.10
2022-09-05T21:19:53.410Z,3.30
2022-09-05T21:22:21.126Z,3.60
2022-09-05T21:25:07.342Z,4.10
2022-09-05T21:27:34.246Z,3.20
2022-09-05T21:30:40.602Z,5.00
2022-09-05T21:33:24.668Z,2.97
2022-09-05T21:36:08.990Z,3.73
2022-09-05T21:38:42.111Z,3.53
2022-09-05T21:41:09.481Z,3.63
2022-09-05T21:47:41.336Z,3.17
2022-09-05T21:47:44.755Z,3.33
2022-09-05T21:49:21.784Z,4.77
2022-09-05T21:51:50.324Z,3.30
2022-09-05T21:58:19.430Z,3.83
2022-09-05T21:59:25.433Z,3.23
2022-09-05T22:00:16.298Z,4.17
2022-09-05T22:02:46.627Z,5.03
2022-09-05T22:05:13.631Z,5.00
2022-09-05T22:07:40.583Z,3.37
2022-09-05T22:10:08.525Z,3.27
2022-09-05T22:12:38.843Z,3.37
2022-09-05T22:15:28.215Z,4.50
2022-09-05T22:18:16.701Z,4.10
2022-09-05T22:21:01.324Z,4.03
2022-09-05T22:23:36.733Z,3.80
2022-09-05T22:26:07.241Z,3.60
2022-09-05T22:28:38.567Z,3.50
2022-09-05T22:31:07.768Z,4.23
2022-09-05T22:33:35.892Z,3.77
2022-09-05T22:36:03.469Z,3.43
2022-09-05T22:38:30.467Z,3.27
2022-09-05T22:40:57.560Z,4.30
2022-09-05T22:43:25.456Z,3.90
2022-09-05T22:45:59.150Z,4.27
2022-09-05T22:48:26.025Z,4.17
2022-09-05T22:50:52.883Z,3.57
2022-09-05T22:53:19.686Z,4.47
2022-09-05T22:55:46.509Z,4.60
2022-09-05T22:58:15.000Z,4.03
2022-09-05T23:00:44.122Z,4.53
2022-09-05T23:03:10.922Z,3.87
2022-09-05T23:05:37.803Z,3.97
2022-09-05T23:08:06.411Z,5.37
2022-09-05T23:10:34.818Z,4.30
2022-09-05T23:13:10.336Z,4.30
2022-09-05T23:15:38.079Z,4.00
2022-09-05T23:18:05.857Z,4.00
2022-09-05T23:20:33.923Z,4.37
2022-09-05T23:23:05.534Z,4.30
2022-09-05T23:25:34.011Z,4.57
2022-09-05T23:28:08.961Z,4.60
2022-09-05T23:30:39.961Z,4.40
2022-09-05T23:33:08.810Z,4.57
2022-09-05T23:35:36.655Z,4.00
2022-09-05T23:38:08.910Z,3.90
2022-09-05T23:40:35.723Z,4.27
2022-09-05T23:43:02.542Z,4.80
2022-09-05T23:45:30.451Z,4.60
2022-09-05T23:47:58.774Z,3.90
2022-09-05T23:50:27.754Z,4.33
2022-09-05T23:52:54.563Z,4.73
2022-09-05T23:55:25.570Z,4.63
2022-09-05T23:57:57.811Z,4.60
